sensor_id;sensor_type;location;lat;lon;timestamp;P1;durP1;ratioP1;P2;durP2;ratioP2
40793;SDS011;26502;51.886;15.604;2023-11-19T00:04:25;25.10;;;16.10;;
40793;SDS011;26502;51.886;15.604;2023-11-19T00:09:51;25.40;;;16.80;;
40793;SDS011;26502;51.886;15.604;2023-11-19T00:15:18;27.10;;;16.60;;
40793;SDS011;26502;51.886;15.604;2023-11-19T00:20:47;25.40;;;17.60;;
40793;SDS011;26502;51.886;15.604;2023-11-19T00:26:13;26.00;;;17.50;;
40793;SDS011;26502;51.886;15.604;2023-11-19T00:31:39;28.30;;;18.50;;
40793;SDS011;26502;51.886;15.604;2023-11-19T00:37:06;27.70;;;17.50;;
40793;SDS011;26502;51.886;15.604;2023-11-19T00:42:33;26.00;;;16.30;;
40793;SDS011;26502;51.886;15.604;2023-11-19T00:47:59;23.90;;;17.70;;
40793;SDS011;26502;51.886;15.604;2023-11-19T00:53:25;25.50;;;17.20;;
40793;SDS011;26502;51.886;15.604;2023-11-19T00:58:51;26.70;;;17.60;;
40793;SDS011;26502;51.886;15.604;2023-11-19T01:04:19;30.70;;;18.90;;
40793;SDS011;26502;51.886;15.604;2023-11-19T01:09:45;23.50;;;16.90;;
40793;SDS011;26502;51.886;15.604;2023-11-19T01:15:12;26.30;;;16.70;;
40793;SDS011;26502;51.886;15.604;2023-11-19T01:20:38;23.90;;;16.80;;
40793;SDS011;26502;51.886;15.604;2023-11-19T01:26:05;26.60;;;16.10;;
40793;SDS011;26502;51.886;15.604;2023-11-19T01:31:33;26.50;;;16.10;;
40793;SDS011;26502;51.886;15.604;2023-11-19T01:37:00;24.00;;;15.70;;
40793;SDS011;26502;51.886;15.604;2023-11-19T01:42:28;26.30;;;16.60;;
40793;SDS011;26502;51.886;15.604;2023-11-19T01:48:02;26.70;;;16.70;;
40793;SDS011;26502;51.886;15.604;2023-11-19T01:53:29;27.20;;;17.40;;
40793;SDS011;26502;51.886;15.604;2023-11-19T01:58:58;26.10;;;17.80;;
40793;SDS011;26502;51.886;15.604;2023-11-19T02:04:25;25.70;;;18.40;;
40793;SDS011;26502;51.886;15.604;2023-11-19T02:09:51;32.20;;;18.70;;
40793;SDS011;26502;51.886;15.604;2023-11-19T02:15:18;29.70;;;19.40;;
40793;SDS011;26502;51.886;15.604;2023-11-19T02:20:47;30.30;;;19.00;;
40793;SDS011;26502;51.886;15.604;2023-11-19T02:26:15;25.70;;;17.20;;
40793;SDS011;26502;51.886;15.604;2023-11-19T02:31:49;22.80;;;15.70;;
40793;SDS011;26502;51.886;15.604;2023-11-19T02:37:16;24.20;;;16.30;;
40793;SDS011;26502;51.886;15.604;2023-11-19T02:42:42;22.60;;;15.30;;
40793;SDS011;26502;51.886;15.604;2023-11-19T02:48:08;23.20;;;15.60;;
40793;SDS011;26502;51.886;15.604;2023-11-19T02:53:37;21.20;;;15.00;;
40793;SDS011;26502;51.886;15.604;2023-11-19T02:59:03;20.60;;;14.60;;
40793;SDS011;26502;51.886;15.604;2023-11-19T03:04:38;19.10;;;13.70;;
40793;SDS011;26502;51.886;15.604;2023-11-19T03:10:06;23.10;;;14.80;;
40793;SDS011;26502;51.886;15.604;2023-11-19T03:15:36;16.90;;;13.40;;
40793;SDS011;26502;51.886;15.604;2023-11-19T03:21:03;18.00;;;13.70;;
40793;SDS011;26502;51.886;15.604;2023-11-19T03:26:30;18.30;;;13.10;;
40793;SDS011;26502;51.886;15.604;2023-11-19T03:31:57;19.10;;;12.60;;
40793;SDS011;26502;51.886;15.604;2023-11-19T03:37:23;18.00;;;12.70;;
40793;SDS011;26502;51.886;15.604;2023-11-19T03:42:47;16.30;;;12.20;;
40793;SDS011;26502;51.886;15.604;2023-11-19T03:48:13;15.50;;;12.30;;
40793;SDS011;26502;51.886;15.604;2023-11-19T03:53:42;16.80;;;12.50;;
40793;SDS011;26502;51.886;15.604;2023-11-19T03:59:09;18.40;;;12.70;;
40793;SDS011;26502;51.886;15.604;2023-11-19T04:04:35;20.10;;;12.90;;
40793;SDS011;26502;51.886;15.604;2023-11-19T04:10:02;19.50;;;13.00;;
40793;SDS011;26502;51.886;15.604;2023-11-19T04:15:28;17.60;;;12.90;;
40793;SDS011;26502;51.886;15.604;2023-11-19T04:20:55;18.10;;;13.10;;
40793;SDS011;26502;51.886;15.604;2023-11-19T04:26:21;21.70;;;14.60;;
40793;SDS011;26502;51.886;15.604;2023-11-19T04:31:48;21.70;;;14.60;;
40793;SDS011;26502;51.886;15.604;2023-11-19T04:37:14;21.80;;;15.70;;
40793;SDS011;26502;51.886;15.604;2023-11-19T04:42:40;21.00;;;14.00;;
40793;SDS011;26502;51.886;15.604;2023-11-19T04:48:07;25.10;;;16.00;;
40793;SDS011;26502;51.886;15.604;2023-11-19T04:53:33;23.20;;;15.70;;
40793;SDS011;26502;51.886;15.604;2023-11-19T04:58:59;23.60;;;15.90;;
40793;SDS011;26502;51.886;15.604;2023-11-19T05:04:25;23.50;;;15.80;;
40793;SDS011;26502;51.886;15.604;2023-11-19T05:09:52;21.80;;;15.20;;
40793;SDS011;26502;51.886;15.604;2023-11-19T05:15:18;25.40;;;17.10;;
40793;SDS011;26502;51.886;15.604;2023-11-19T05:20:45;20.60;;;15.20;;
40793;SDS011;26502;51.886;15.604;2023-11-19T05:26:16;26.30;;;16.40;;
40793;SDS011;26502;51.886;15.604;2023-11-19T05:31:43;27.30;;;17.00;;
40793;SDS011;26502;51.886;15.604;2023-11-19T05:37:10;24.90;;;16.60;;
40793;SDS011;26502;51.886;15.604;2023-11-19T05:42:38;24.60;;;17.40;;
40793;SDS011;26502;51.886;15.604;2023-11-19T05:48:05;28.30;;;18.10;;
40793;SDS011;26502;51.886;15.604;2023-11-19T05:53:32;26.20;;;17.60;;
40793;SDS011;26502;51.886;15.604;2023-11-19T05:59:01;25.70;;;17.60;;
40793;SDS011;26502;51.886;15.604;2023-11-19T06:04:30;20.10;;;13.20;;
40793;SDS011;26502;51.886;15.604;2023-11-19T06:09:56;25.80;;;17.00;;
40793;SDS011;26502;51.886;15.604;2023-11-19T06:15:22;25.90;;;17.90;;
40793;SDS011;26502;51.886;15.604;2023-11-19T06:20:49;26.50;;;17.50;;
40793;SDS011;26502;51.886;15.604;2023-11-19T06:26:15;24.50;;;16.60;;
40793;SDS011;26502;51.886;15.604;2023-11-19T06:31:41;25.10;;;16.90;;
40793;SDS011;26502;51.886;15.604;2023-11-19T06:37:08;26.60;;;16.90;;
40793;SDS011;26502;51.886;15.604;2023-11-19T06:42:34;25.90;;;16.60;;
40793;SDS011;26502;51.886;15.604;2023-11-19T06:48:03;25.10;;;17.10;;
40793;SDS011;26502;51.886;15.604;2023-11-19T06:53:30;27.80;;;17.10;;
40793;SDS011;26502;51.886;15.604;2023-11-19T06:58:56;24.60;;;15.90;;
40793;SDS011;26502;51.886;15.604;2023-11-19T07:04:22;23.40;;;16.30;;
40793;SDS011;26502;51.886;15.604;2023-11-19T07:09:48;23.90;;;16.40;;
40793;SDS011;26502;51.886;15.604;2023-11-19T07:15:15;23.50;;;15.00;;
40793;SDS011;26502;51.886;15.604;2023-11-19T07:20:42;23.60;;;16.40;;
40793;SDS011;26502;51.886;15.604;2023-11-19T07:26:09;24.50;;;16.10;;
40793;SDS011;26502;51.886;15.604;2023-11-19T07:31:35;23.50;;;14.50;;
40793;SDS011;26502;51.886;15.604;2023-11-19T07:37:01;22.30;;;15.00;;
40793;SDS011;26502;51.886;15.604;2023-11-19T07:42:28;21.50;;;14.60;;
40793;SDS011;26502;51.886;15.604;2023-11-19T07:47:55;24.40;;;16.90;;
40793;SDS011;26502;51.886;15.604;2023-11-19T07:53:22;22.50;;;15.40;;
40793;SDS011;26502;51.886;15.604;2023-11-19T07:58:48;21.60;;;15.80;;
40793;SDS011;26502;51.886;15.604;2023-11-19T08:04:15;26.80;;;17.60;;
40793;SDS011;26502;51.886;15.604;2023-11-19T08:09:41;21.60;;;15.60;;
40793;SDS011;26502;51.886;15.604;2023-11-19T08:15:08;22.40;;;15.20;;
40793;SDS011;26502;51.886;15.604;2023-11-19T08:20:35;18.90;;;13.60;;
40793;SDS011;26502;51.886;15.604;2023-11-19T08:26:01;20.10;;;13.40;;
40793;SDS011;26502;51.886;15.604;2023-11-19T08:31:28;17.80;;;12.40;;
40793;SDS011;26502;51.886;15.604;2023-11-19T08:36:54;16.80;;;11.80;;
40793;SDS011;26502;51.886;15.604;2023-11-19T08:42:20;15.00;;;10.70;;
40793;SDS011;26502;51.886;15.604;2023-11-19T08:47:46;11.90;;;9.20;;
40793;SDS011;26502;51.886;15.604;2023-11-19T08:53:13;18.40;;;9.90;;
40793;SDS011;26502;51.886;15.604;2023-11-19T08:58:39;15.00;;;10.20;;
40793;SDS011;26502;51.886;15.604;2023-11-19T09:04:05;12.30;;;8.80;;
40793;SDS011;26502;51.886;15.604;2023-11-19T09:09:32;12.90;;;10.10;;
40793;SDS011;26502;51.886;15.604;2023-11-19T09:14:59;13.30;;;10.10;;
40793;SDS011;26502;51.886;15.604;2023-11-19T09:20:25;12.90;;;8.80;;
40793;SDS011;26502;51.886;15.604;2023-11-19T09:25:55;10.60;;;7.80;;
40793;SDS011;26502;51.886;15.604;2023-11-19T09:31:23;11.30;;;8.10;;
40793;SDS011;26502;51.886;15.604;2023-11-19T09:36:49;11.10;;;8.00;;
40793;SDS011;26502;51.886;15.604;2023-11-19T09:42:18;8.90;;;7.40;;
40793;SDS011;26502;51.886;15.604;2023-11-19T09:47:45;9.50;;;6.80;;
40793;SDS011;26502;51.886;15.604;2023-11-19T09:53:12;10.60;;;7.80;;
40793;SDS011;26502;51.886;15.604;2023-11-19T09:58:38;10.40;;;6.90;;
40793;SDS011;26502;51.886;15.604;2023-11-19T10:04:05;8.50;;;6.20;;
40793;SDS011;26502;51.886;15.604;2023-11-19T10:09:32;9.50;;;6.90;;
40793;SDS011;26502;51.886;15.604;2023-11-19T10:14:59;7.70;;;6.30;;
40793;SDS011;26502;51.886;15.604;2023-11-19T10:20:25;7.00;;;5.40;;
40793;SDS011;26502;51.886;15.604;2023-11-19T10:25:52;9.00;;;5.50;;
40793;SDS011;26502;51.886;15.604;2023-11-19T10:31:25;7.10;;;5.10;;
40793;SDS011;26502;51.886;15.604;2023-11-19T10:36:52;9.90;;;6.80;;
40793;SDS011;26502;51.886;15.604;2023-11-19T10:42:20;6.60;;;4.60;;
40793;SDS011;26502;51.886;15.604;2023-11-19T10:47:47;4.70;;;3.80;;
40793;SDS011;26502;51.886;15.604;2023-11-19T10:53:14;7.30;;;5.30;;
40793;SDS011;26502;51.886;15.604;2023-11-19T10:58:43;5.60;;;4.40;;
40793;SDS011;26502;51.886;15.604;2023-11-19T11:04:14;8.90;;;4.50;;
40793;SDS011;26502;51.886;15.604;2023-11-19T11:09:44;5.10;;;3.90;;
40793;SDS011;26502;51.886;15.604;2023-11-19T11:15:12;6.50;;;4.80;;
40793;SDS011;26502;51.886;15.604;2023-11-19T11:20:38;6.80;;;5.00;;
40793;SDS011;26502;51.886;15.604;2023-11-19T11:26:19;5.60;;;4.00;;
40793;SDS011;26502;51.886;15.604;2023-11-19T11:31:59;6.20;;;4.70;;
40793;SDS011;26502;51.886;15.604;2023-11-19T11:37:33;7.10;;;4.30;;
40793;SDS011;26502;51.886;15.604;2023-11-19T11:42:44;5.20;;;3.90;;
40793;SDS011;26502;51.886;15.604;2023-11-19T11:48:12;9.60;;;4.00;;
40793;SDS011;26502;51.886;15.604;2023-11-19T11:53:43;5.60;;;4.70;;
40793;SDS011;26502;51.886;15.604;2023-11-19T11:59:18;6.40;;;5.10;;
40793;SDS011;26502;51.886;15.604;2023-11-19T12:04:48;8.40;;;6.40;;
40793;SDS011;26502;51.886;15.604;2023-11-19T12:10:15;8.70;;;5.90;;
40793;SDS011;26502;51.886;15.604;2023-11-19T12:21:35;12.50;;;8.00;;
40793;SDS011;26502;51.886;15.604;2023-11-19T12:27:01;17.20;;;9.10;;
40793;SDS011;26502;51.886;15.604;2023-11-19T12:32:32;26.50;;;19.20;;
40793;SDS011;26502;51.886;15.604;2023-11-19T12:38:04;28.10;;;23.90;;
40793;SDS011;26502;51.886;15.604;2023-11-19T12:43:30;28.20;;;19.90;;
40793;SDS011;26502;51.886;15.604;2023-11-19T12:48:57;32.40;;;19.30;;
40793;SDS011;26502;51.886;15.604;2023-11-19T12:54:35;25.70;;;16.60;;
40793;SDS011;26502;51.886;15.604;2023-11-19T13:00:02;29.40;;;19.10;;
40793;SDS011;26502;51.886;15.604;2023-11-19T13:05:33;29.00;;;22.30;;
40793;SDS011;26502;51.886;15.604;2023-11-19T13:11:00;22.00;;;13.20;;
40793;SDS011;26502;51.886;15.604;2023-11-19T13:16:27;18.10;;;13.50;;
40793;SDS011;26502;51.886;15.604;2023-11-19T13:21:53;22.50;;;13.30;;
40793;SDS011;26502;51.886;15.604;2023-11-19T13:27:20;20.20;;;14.80;;
40793;SDS011;26502;51.886;15.604;2023-11-19T13:32:46;17.50;;;13.90;;
40793;SDS011;26502;51.886;15.604;2023-11-19T13:38:13;13.20;;;9.90;;
40793;SDS011;26502;51.886;15.604;2023-11-19T13:43:39;17.30;;;12.90;;
40793;SDS011;26502;51.886;15.604;2023-11-19T13:49:07;46.40;;;28.90;;
40793;SDS011;26502;51.886;15.604;2023-11-19T13:54:36;44.40;;;31.00;;
40793;SDS011;26502;51.886;15.604;2023-11-19T14:00:03;45.70;;;33.00;;
40793;SDS011;26502;51.886;15.604;2023-11-19T14:05:36;43.60;;;29.50;;
40793;SDS011;26502;51.886;15.604;2023-11-19T14:11:05;31.90;;;21.80;;
40793;SDS011;26502;51.886;15.604;2023-11-19T14:16:32;19.20;;;15.10;;
40793;SDS011;26502;51.886;15.604;2023-11-19T14:21:58;20.50;;;15.20;;
40793;SDS011;26502;51.886;15.604;2023-11-19T14:27:26;24.10;;;16.50;;
40793;SDS011;26502;51.886;15.604;2023-11-19T14:32:52;22.30;;;17.10;;
40793;SDS011;26502;51.886;15.604;2023-11-19T14:38:20;94.80;;;46.50;;
40793;SDS011;26502;51.886;15.604;2023-11-19T14:43:48;88.70;;;41.20;;
40793;SDS011;26502;51.886;15.604;2023-11-19T14:49:15;34.40;;;21.20;;
40793;SDS011;26502;51.886;15.604;2023-11-19T14:54:43;22.80;;;10.50;;
40793;SDS011;26502;51.886;15.604;2023-11-19T15:00:12;14.30;;;7.20;;
40793;SDS011;26502;51.886;15.604;2023-11-19T15:05:39;12.30;;;4.90;;
40793;SDS011;26502;51.886;15.604;2023-11-19T15:11:06;12.70;;;4.60;;
40793;SDS011;26502;51.886;15.604;2023-11-19T15:16:33;9.80;;;3.20;;
40793;SDS011;26502;51.886;15.604;2023-11-19T15:21:59;22.80;;;16.20;;
40793;SDS011;26502;51.886;15.604;2023-11-19T15:27:28;7.80;;;4.20;;
40793;SDS011;26502;51.886;15.604;2023-11-19T15:32:54;16.60;;;5.30;;
40793;SDS011;26502;51.886;15.604;2023-11-19T15:38:21;16.70;;;5.70;;
40793;SDS011;26502;51.886;15.604;2023-11-19T15:43:47;22.70;;;12.40;;
40793;SDS011;26502;51.886;15.604;2023-11-19T15:49:14;20.10;;;8.10;;
40793;SDS011;26502;51.886;15.604;2023-11-19T15:54:43;20.20;;;9.50;;
40793;SDS011;26502;51.886;15.604;2023-11-19T16:00:11;23.00;;;12.40;;
40793;SDS011;26502;51.886;15.604;2023-11-19T16:05:40;15.40;;;7.90;;
40793;SDS011;26502;51.886;15.604;2023-11-19T16:11:09;24.20;;;16.20;;
40793;SDS011;26502;51.886;15.604;2023-11-19T16:16:36;16.20;;;8.70;;
40793;SDS011;26502;51.886;15.604;2023-11-19T16:22:04;11.00;;;4.90;;
40793;SDS011;26502;51.886;15.604;2023-11-19T16:27:34;19.50;;;7.50;;
40793;SDS011;26502;51.886;15.604;2023-11-19T16:33:04;35.80;;;14.40;;
40793;SDS011;26502;51.886;15.604;2023-11-19T16:38:31;12.30;;;6.90;;
40793;SDS011;26502;51.886;15.604;2023-11-19T16:44:00;20.50;;;9.10;;
40793;SDS011;26502;51.886;15.604;2023-11-19T16:49:29;15.20;;;6.30;;
40793;SDS011;26502;51.886;15.604;2023-11-19T16:55:00;19.70;;;8.00;;
40793;SDS011;26502;51.886;15.604;2023-11-19T17:00:34;38.20;;;14.50;;
40793;SDS011;26502;51.886;15.604;2023-11-19T17:06:02;63.90;;;29.30;;
40793;SDS011;26502;51.886;15.604;2023-11-19T17:11:32;38.90;;;18.40;;
40793;SDS011;26502;51.886;15.604;2023-11-19T17:16:59;28.80;;;12.10;;
40793;SDS011;26502;51.886;15.604;2023-11-19T17:22:26;35.50;;;11.60;;
40793;SDS011;26502;51.886;15.604;2023-11-19T17:27:52;29.60;;;10.90;;
40793;SDS011;26502;51.886;15.604;2023-11-19T17:33:18;24.00;;;11.60;;
40793;SDS011;26502;51.886;15.604;2023-11-19T17:38:45;21.40;;;8.00;;
40793;SDS011;26502;51.886;15.604;2023-11-19T17:44:12;22.80;;;9.70;;
40793;SDS011;26502;51.886;15.604;2023-11-19T17:49:38;31.70;;;18.20;;
40793;SDS011;26502;51.886;15.604;2023-11-19T17:55:10;31.90;;;16.20;;
40793;SDS011;26502;51.886;15.604;2023-11-19T18:00:38;34.00;;;16.00;;
40793;SDS011;26502;51.886;15.604;2023-11-19T18:06:12;48.40;;;23.50;;
40793;SDS011;26502;51.886;15.604;2023-11-19T18:11:42;34.10;;;15.90;;
40793;SDS011;26502;51.886;15.604;2023-11-19T18:17:09;58.70;;;26.10;;
40793;SDS011;26502;51.886;15.604;2023-11-19T18:22:38;73.70;;;32.60;;
40793;SDS011;26502;51.886;15.604;2023-11-19T18:28:08;56.90;;;25.40;;
40793;SDS011;26502;51.886;15.604;2023-11-19T18:33:39;41.80;;;19.70;;
40793;SDS011;26502;51.886;15.604;2023-11-19T18:39:07;26.00;;;9.90;;
40793;SDS011;26502;51.886;15.604;2023-11-19T18:44:34;11.00;;;5.90;;
40793;SDS011;26502;51.886;15.604;2023-11-19T18:50:01;14.90;;;6.60;;
40793;SDS011;26502;51.886;15.604;2023-11-19T18:55:32;18.00;;;8.10;;
40793;SDS011;26502;51.886;15.604;2023-11-19T19:01:01;13.50;;;6.00;;
40793;SDS011;26502;51.886;15.604;2023-11-19T19:06:28;18.20;;;6.90;;
40793;SDS011;26502;51.886;15.604;2023-11-19T19:17:25;22.60;;;8.60;;
40793;SDS011;26502;51.886;15.604;2023-11-19T19:22:52;17.50;;;6.40;;
40793;SDS011;26502;51.886;15.604;2023-11-19T19:28:19;19.90;;;8.90;;
40793;SDS011;26502;51.886;15.604;2023-11-19T19:33:46;21.60;;;9.80;;
40793;SDS011;26502;51.886;15.604;2023-11-19T19:39:17;20.80;;;9.00;;
40793;SDS011;26502;51.886;15.604;2023-11-19T19:44:44;22.30;;;8.20;;
40793;SDS011;26502;51.886;15.604;2023-11-19T19:50:12;25.20;;;8.10;;
40793;SDS011;26502;51.886;15.604;2023-11-19T19:55:44;21.80;;;7.60;;
40793;SDS011;26502;51.886;15.604;2023-11-19T20:01:13;22.50;;;7.70;;
40793;SDS011;26502;51.886;15.604;2023-11-19T20:06:40;21.60;;;8.70;;
40793;SDS011;26502;51.886;15.604;2023-11-19T20:12:07;21.50;;;8.90;;
40793;SDS011;26502;51.886;15.604;2023-11-19T20:17:35;19.50;;;7.30;;
40793;SDS011;26502;51.886;15.604;2023-11-19T20:23:05;17.20;;;5.80;;
40793;SDS011;26502;51.886;15.604;2023-11-19T20:28:33;27.70;;;13.20;;
40793;SDS011;26502;51.886;15.604;2023-11-19T20:34:05;21.00;;;7.70;;
40793;SDS011;26502;51.886;15.604;2023-11-19T20:39:39;15.30;;;7.00;;
40793;SDS011;26502;51.886;15.604;2023-11-19T20:45:19;16.30;;;4.50;;
40793;SDS011;26502;51.886;15.604;2023-11-19T20:50:56;23.00;;;5.70;;
40793;SDS011;26502;51.886;15.604;2023-11-19T20:56:23;16.20;;;5.20;;
40793;SDS011;26502;51.886;15.604;2023-11-19T21:01:53;18.70;;;4.70;;
40793;SDS011;26502;51.886;15.604;2023-11-19T21:07:45;12.70;;;3.70;;
40793;SDS011;26502;51.886;15.604;2023-11-19T21:13:21;17.80;;;4.10;;
40793;SDS011;26502;51.886;15.604;2023-11-19T21:18:52;32.10;;;15.50;;
40793;SDS011;26502;51.886;15.604;2023-11-19T21:24:18;17.70;;;5.60;;
40793;SDS011;26502;51.886;15.604;2023-11-19T21:29:49;14.70;;;6.30;;
40793;SDS011;26502;51.886;15.604;2023-11-19T21:35:16;22.10;;;9.20;;
40793;SDS011;26502;51.886;15.604;2023-11-19T21:40:42;23.80;;;9.80;;
40793;SDS011;26502;51.886;15.604;2023-11-19T21:46:09;26.50;;;11.80;;
40793;SDS011;26502;51.886;15.604;2023-11-19T21:51:39;23.30;;;6.30;;
40793;SDS011;26502;51.886;15.604;2023-11-19T21:57:06;20.10;;;5.70;;
40793;SDS011;26502;51.886;15.604;2023-11-19T22:02:32;11.10;;;3.30;;
40793;SDS011;26502;51.886;15.604;2023-11-19T22:07:58;14.60;;;4.10;;
40793;SDS011;26502;51.886;15.604;2023-11-19T22:13:24;16.90;;;5.00;;
40793;SDS011;26502;51.886;15.604;2023-11-19T22:18:51;20.40;;;6.80;;
40793;SDS011;26502;51.886;15.604;2023-11-19T22:24:17;17.10;;;5.70;;
40793;SDS011;26502;51.886;15.604;2023-11-19T22:29:45;16.50;;;4.90;;
40793;SDS011;26502;51.886;15.604;2023-11-19T22:35:11;17.00;;;4.70;;
40793;SDS011;26502;51.886;15.604;2023-11-19T22:40:37;14.30;;;4.60;;
40793;SDS011;26502;51.886;15.604;2023-11-19T22:46:04;23.30;;;5.00;;
40793;SDS011;26502;51.886;15.604;2023-11-19T22:51:32;17.70;;;3.80;;
40793;SDS011;26502;51.886;15.604;2023-11-19T22:56:59;12.90;;;3.60;;
40793;SDS011;26502;51.886;15.604;2023-11-19T23:02:25;16.00;;;3.90;;
40793;SDS011;26502;51.886;15.604;2023-11-19T23:07:53;17.00;;;3.70;;
40793;SDS011;26502;51.886;15.604;2023-11-19T23:13:20;18.00;;;3.50;;
40793;SDS011;26502;51.886;15.604;2023-11-19T23:18:47;19.00;;;3.70;;
40793;SDS011;26502;51.886;15.604;2023-11-19T23:24:13;19.90;;;4.00;;
40793;SDS011;26502;51.886;15.604;2023-11-19T23:29:39;19.00;;;3.90;;
40793;SDS011;26502;51.886;15.604;2023-11-19T23:35:07;13.00;;;3.20;;
40793;SDS011;26502;51.886;15.604;2023-11-19T23:40:35;21.90;;;4.10;;
40793;SDS011;26502;51.886;15.604;2023-11-19T23:46:01;11.90;;;3.40;;
40793;SDS011;26502;51.886;15.604;2023-11-19T23:51:28;17.90;;;3.20;;
40793;SDS011;26502;51.886;15.604;2023-11-19T23:56:54;15.30;;;3.30;;
